Time;durP1;ratioP1;P1;durP2;ratioP2;P2;SDS_P1;SDS_P2;PMS_P1;PMS_P2;Temp;Humidity;BMP_temperature;BMP_pressure;BME280_temperature;BME280_humidity;BME280_pressure;Samples;Min_cycle;Max_cycle;Signal;HPM_P1;HPM_P2
2024/01/08 00:01:32;;;;;;;10.68;4.15;;;-1.40;99.90;;;;;;5052319;28;20171;-80
2024/01/08 00:03:57;;;;;;;5.72;3.97;;;-1.30;99.90;;;;;;5070249;28;20277;-73
2024/01/08 00:06:23;;;;;;;6.53;4.03;;;-1.30;99.90;;;;;;5090993;28;20330;-72
2024/01/08 00:08:49;;;;;;;3.87;3.63;;;-1.30;99.90;;;;;;5092271;28;20696;-77
2024/01/08 00:11:15;;;;;;;4.90;4.50;;;-1.30;99.90;;;;;;5092395;28;20396;-79
2024/01/08 00:13:41;;;;;;;4.13;3.87;;;-1.20;99.90;;;;;;5093461;28;20406;-72
2024/01/08 00:16:07;;;;;;;4.20;3.90;;;-1.30;99.90;;;;;;5095169;28;20400;-76
2024/01/08 00:18:32;;;;;;;4.37;4.07;;;-1.30;99.90;;;;;;5095293;28;20569;-76
2024/01/08 00:20:59;;;;;;;4.43;3.40;;;-1.30;99.90;;;;;;5095536;28;20684;-71
2024/01/08 00:23:25;;;;;;;4.13;3.83;;;-1.30;99.90;;;;;;5095637;28;20162;-80
2024/01/08 00:25:51;;;;;;;3.90;3.60;;;-1.20;99.90;;;;;;5073272;28;20182;-80
2024/01/08 00:28:17;;;;;;;4.53;4.23;;;-1.20;99.90;;;;;;5074284;28;20212;-72
2024/01/08 00:30:42;;;;;;;4.00;3.80;;;-1.10;99.90;;;;;;5075454;28;20223;-79
2024/01/08 00:33:09;;;;;;;4.60;4.30;;;-1.10;99.90;;;;;;5075516;28;20639;-72
2024/01/08 00:35:35;;;;;;;7.88;4.28;;;-1.20;99.90;;;;;;5088867;28;20165;-79
2024/01/08 00:38:01;;;;;;;6.33;4.10;;;-1.20;99.90;;;;;;5095473;28;20193;-79
2024/01/08 00:40:26;;;;;;;5.30;4.47;;;-1.10;99.90;;;;;;5095764;28;20556;-73
2024/01/08 00:42:52;;;;;;;4.07;3.50;;;-1.20;99.90;;;;;;5094904;28;20579;-73
2024/01/08 00:45:18;;;;;;;8.97;3.57;;;-1.10;99.90;;;;;;5094618;28;20168;-72
2024/01/08 00:47:43;;;;;;;4.77;4.20;;;-1.10;99.90;;;;;;5095513;28;20287;-71
2024/01/08 00:50:13;;;;;;;5.73;3.87;;;-1.10;99.90;;;;;;5067866;28;20183;-72
2024/01/08 00:52:40;;;;;;;4.05;3.63;;;-1.10;99.90;;;;;;5055059;28;20263;-73
2024/01/08 00:55:06;;;;;;;8.45;4.47;;;-1.10;99.90;;;;;;5054157;28;20167;-72
2024/01/08 00:57:32;;;;;;;4.53;4.05;;;-1.10;99.90;;;;;;5055016;28;20187;-71
2024/01/08 00:59:58;;;;;;;4.22;3.78;;;-1.10;99.90;;;;;;5070409;28;20209;-72
2024/01/08 01:02:24;;;;;;;3.80;3.40;;;-1.00;99.90;;;;;;5054440;28;20179;-79
2024/01/08 01:04:50;;;;;;;4.50;3.63;;;-1.00;99.90;;;;;;5078311;28;20187;-80
2024/01/08 01:07:16;;;;;;;4.37;4.03;;;-1.00;99.90;;;;;;5094692;28;20288;-73
2024/01/08 01:09:41;;;;;;;4.07;3.77;;;-1.00;99.90;;;;;;5095190;28;20630;-73
2024/01/08 01:12:08;;;;;;;3.60;3.30;;;-1.00;99.90;;;;;;5110705;28;20563;-79
2024/01/08 01:14:34;;;;;;;3.53;3.17;;;-0.90;99.90;;;;;;5094151;28;20176;-78
2024/01/08 01:17:00;;;;;;;5.67;3.80;;;-0.90;99.90;;;;;;5094900;28;20162;-76
2024/01/08 01:19:25;;;;;;;4.00;3.70;;;-0.90;99.90;;;;;;5093657;28;20220;-80
2024/01/08 01:21:51;;;;;;;4.60;4.20;;;-0.90;99.90;;;;;;5094166;28;20177;-73
2024/01/08 01:24:17;;;;;;;6.07;3.63;;;-0.90;99.90;;;;;;5094781;28;20433;-81
2024/01/08 01:26:42;;;;;;;3.53;3.33;;;-0.90;99.90;;;;;;5092507;28;20235;-80
2024/01/08 01:29:08;;;;;;;3.23;3.03;;;-0.90;99.90;;;;;;5094592;28;20178;-79
2024/01/08 01:31:34;;;;;;;4.90;4.50;;;-0.80;99.90;;;;;;5094632;28;20694;-80
2024/01/08 01:34:00;;;;;;;4.10;3.80;;;-0.80;99.90;;;;;;5093463;28;20200;-74
2024/01/08 01:36:26;;;;;;;4.75;4.28;;;-0.80;99.90;;;;;;5093691;28;20634;-72
2024/01/08 01:38:52;;;;;;;5.43;4.73;;;-0.80;99.90;;;;;;5094427;28;20207;-81
2024/01/08 01:41:17;;;;;;;3.97;3.77;;;-0.80;99.90;;;;;;5092423;28;20184;-80
2024/01/08 01:43:43;;;;;;;5.53;4.10;;;-0.90;99.90;;;;;;5094563;28;20736;-80
2024/01/08 01:46:25;;;;;;;4.57;3.70;;;-0.90;99.90;;;;;;5092939;28;20198;-73
2024/01/08 01:48:51;;;;;;;4.45;3.88;;;-0.90;99.90;;;;;;5091614;28;20563;-79
2024/01/08 01:51:17;;;;;;;7.10;3.53;;;-0.90;99.90;;;;;;5094220;28;20177;-80
2024/01/08 01:53:45;;;;;;;4.93;3.67;;;-0.80;99.90;;;;;;5093303;28;20499;-80
2024/01/08 01:56:12;;;;;;;2.92;2.80;;;-0.80;99.90;;;;;;5093298;28;20410;-73
2024/01/08 01:58:38;;;;;;;3.20;3.00;;;-0.90;99.90;;;;;;5094129;28;20200;-77
2024/01/08 02:01:04;;;;;;;3.23;3.03;;;-0.80;99.90;;;;;;5093204;28;20166;-73
2024/01/08 02:03:31;;;;;;;5.00;3.47;;;-0.80;99.90;;;;;;5089648;28;20642;-79
2024/01/08 02:05:57;;;;;;;3.83;3.30;;;-0.80;99.90;;;;;;5052661;28;20425;-73
2024/01/08 02:08:24;;;;;;;3.78;3.38;;;-0.80;99.90;;;;;;5054816;28;20678;-73
2024/01/08 02:10:51;;;;;;;3.80;3.60;;;-0.80;99.90;;;;;;5052646;28;20181;-76
2024/01/08 02:13:17;;;;;;;3.50;3.30;;;-0.80;99.90;;;;;;5053675;28;20167;-72
2024/01/08 02:15:43;;;;;;;3.90;3.60;;;-0.80;99.90;;;;;;5078816;28;20170;-78
2024/01/08 02:18:08;;;;;;;5.30;3.33;;;-0.80;99.90;;;;;;5093550;28;20685;-73
2024/01/08 02:20:34;;;;;;;4.20;3.47;;;-0.80;99.90;;;;;;5092196;28;20165;-76
2024/01/08 02:23:00;;;;;;;3.93;3.60;;;-0.80;99.90;;;;;;5089579;28;20195;-80
2024/01/08 02:25:26;;;;;;;3.53;3.07;;;-0.80;99.90;;;;;;5072501;28;20170;-73
2024/01/08 02:27:52;;;;;;;6.80;2.47;;;-0.80;99.90;;;;;;5073134;28;20200;-74
2024/01/08 02:30:18;;;;;;;10.93;4.00;;;-0.80;99.90;;;;;;5073329;28;20174;-76
2024/01/08 02:32:44;;;;;;;3.35;3.05;;;-0.70;99.90;;;;;;5073167;28;20427;-73
2024/01/08 02:35:09;;;;;;;3.40;3.00;;;-0.80;99.90;;;;;;5058035;28;20202;-79
2024/01/08 02:37:35;;;;;;;6.87;3.80;;;-0.80;99.90;;;;;;5051455;28;20618;-80
2024/01/08 02:40:02;;;;;;;10.90;3.60;;;-0.80;99.90;;;;;;5053084;28;20171;-80
2024/01/08 02:42:27;;;;;;;4.82;3.70;;;-0.80;99.90;;;;;;5053210;28;20570;-74
2024/01/08 02:44:54;;;;;;;5.23;3.93;;;-0.80;99.90;;;;;;5051982;28;20179;-80
2024/01/08 02:47:20;;;;;;;5.22;3.83;;;-0.80;99.90;;;;;;5068181;28;20199;-78
2024/01/08 02:49:45;;;;;;;4.97;3.80;;;-0.80;99.90;;;;;;5077833;28;20235;-80
2024/01/08 02:52:11;;;;;;;6.13;4.10;;;-0.80;99.90;;;;;;5093212;28;20169;-75
2024/01/08 02:54:37;;;;;;;5.87;4.10;;;-0.80;99.90;;;;;;5092067;28;20165;-73
2024/01/08 02:57:03;;;;;;;7.93;3.50;;;-0.80;99.90;;;;;;5092915;28;20206;-73
2024/01/08 02:59:29;;;;;;;3.72;3.53;;;-0.70;99.90;;;;;;5093048;28;20178;-73
2024/01/08 03:01:55;;;;;;;9.20;4.47;;;-0.80;99.90;;;;;;5092444;28;20194;-73
2024/01/08 03:04:20;;;;;;;4.53;4.13;;;-0.80;99.90;;;;;;5078488;28;20171;-80
2024/01/08 03:06:46;;;;;;;4.93;4.53;;;-0.80;99.90;;;;;;5051776;28;20495;-80
2024/01/08 03:09:12;;;;;;;4.20;3.40;;;-0.80;99.90;;;;;;5068181;28;20225;-79
2024/01/08 03:11:37;;;;;;;5.13;4.37;;;-0.80;99.90;;;;;;5052812;28;20210;-81
2024/01/08 03:14:03;;;;;;;8.73;4.10;;;-0.80;99.90;;;;;;5052386;28;20170;-77
2024/01/08 03:16:29;;;;;;;6.17;4.20;;;-0.80;99.90;;;;;;5054070;28;20171;-72
2024/01/08 03:18:54;;;;;;;4.93;4.53;;;-0.80;99.90;;;;;;5089596;28;20224;-80
2024/01/08 03:21:20;;;;;;;3.73;3.50;;;-0.80;99.90;;;;;;5052634;28;20179;-75
2024/01/08 03:23:46;;;;;;;5.40;4.90;;;-0.80;99.90;;;;;;5052822;28;20639;-80
2024/01/08 03:26:11;;;;;;;4.83;4.10;;;-0.80;99.90;;;;;;5051604;28;20222;-73
2024/01/08 03:28:37;;;;;;;5.37;4.70;;;-0.80;99.90;;;;;;5052613;28;20253;-72
2024/01/08 03:31:03;;;;;;;4.83;4.23;;;-0.90;99.90;;;;;;5077613;28;20703;-80
2024/01/08 03:33:29;;;;;;;5.67;3.80;;;-0.80;99.90;;;;;;5092342;28;20256;-75
2024/01/08 03:35:55;;;;;;;4.70;4.40;;;-0.80;99.90;;;;;;5090663;28;20223;-73
2024/01/08 03:38:20;;;;;;;4.30;3.90;;;-0.80;99.90;;;;;;5092675;28;20675;-72
2024/01/08 03:40:46;;;;;;;4.30;3.97;;;-0.80;99.90;;;;;;5092843;28;20175;-75
2024/01/08 03:43:12;;;;;;;5.23;4.33;;;-0.80;99.90;;;;;;5092792;28;20396;-77
2024/01/08 03:45:38;;;;;;;7.23;3.50;;;-0.80;99.90;;;;;;5091779;28;20200;-79
2024/01/08 03:48:04;;;;;;;8.07;4.80;;;-0.80;99.90;;;;;;5092511;28;20280;-80
2024/01/08 03:50:29;;;;;;;6.72;4.70;;;-0.80;99.90;;;;;;5095079;28;20174;-75
2024/01/08 03:52:55;;;;;;;8.03;4.47;;;-0.80;99.90;;;;;;5096290;28;20177;-72
2024/01/08 03:55:21;;;;;;;4.20;3.73;;;-0.80;99.90;;;;;;5094640;28;20165;-72
2024/01/08 03:57:46;;;;;;;5.70;4.37;;;-0.80;99.90;;;;;;5094388;28;20205;-81
2024/01/08 04:00:13;;;;;;;5.43;4.90;;;-0.80;99.90;;;;;;5075949;28;20174;-73
2024/01/08 04:02:43;;;;;;;4.05;3.75;;;-0.80;99.90;;;;;;5076032;28;20169;-80
2024/01/08 04:05:11;;;;;;;8.25;4.50;;;-0.80;99.90;;;;;;5061622;28;20274;-77
2024/01/08 04:07:37;;;;;;;4.10;3.80;;;-0.70;99.90;;;;;;5055887;28;20203;-80
2024/01/08 04:10:04;;;;;;;5.93;3.70;;;-0.80;99.90;;;;;;5055366;28;20167;-80
2024/01/08 04:12:30;;;;;;;5.55;4.40;;;-0.80;99.90;;;;;;5055900;28;20524;-73
2024/01/08 04:14:56;;;;;;;3.80;3.50;;;-0.80;99.90;;;;;;5054924;28;20157;-79
2024/01/08 04:17:21;;;;;;;4.07;3.77;;;-0.80;99.90;;;;;;5055750;28;20399;-81
2024/01/08 04:19:47;;;;;;;3.67;3.37;;;-0.70;99.90;;;;;;5059002;28;20179;-77
2024/01/08 04:22:13;;;;;;;4.60;3.97;;;-0.70;99.90;;;;;;5071418;28;20178;-73
2024/01/08 04:24:38;;;;;;;5.60;4.83;;;-0.70;99.90;;;;;;5055653;28;20583;-80
2024/01/08 04:27:04;;;;;;;3.77;3.53;;;-0.70;99.90;;;;;;5055156;28;20186;-74
2024/01/08 04:29:30;;;;;;;11.67;4.30;;;-0.70;99.90;;;;;;5055477;28;20571;-73
2024/01/08 04:31:56;;;;;;;3.90;3.30;;;-0.70;99.90;;;;;;5055588;28;20694;-75
2024/01/08 04:34:22;;;;;;;5.00;4.60;;;-0.70;99.90;;;;;;5067393;28;20153;-73
2024/01/08 04:36:48;;;;;;;4.43;4.03;;;-0.70;99.90;;;;;;5094921;28;20204;-80
2024/01/08 04:39:14;;;;;;;4.17;3.60;;;-0.70;99.90;;;;;;5095669;28;20466;-73
2024/01/08 04:41:39;;;;;;;4.60;3.93;;;-0.70;99.90;;;;;;5095671;28;20177;-73
2024/01/08 04:44:05;;;;;;;4.50;4.10;;;-0.70;99.90;;;;;;5095542;28;20170;-73
2024/01/08 04:46:31;;;;;;;8.60;4.10;;;-0.60;99.90;;;;;;5094049;28;20189;-73
2024/01/08 04:48:57;;;;;;;4.60;4.30;;;-0.70;99.90;;;;;;5092954;28;20182;-80
2024/01/08 04:51:23;;;;;;;5.80;3.50;;;-0.60;99.90;;;;;;5095445;28;20639;-73
2024/01/08 04:53:50;;;;;;;6.30;3.20;;;-0.60;99.90;;;;;;5066409;28;20624;-80
2024/01/08 04:56:23;;;;;;;11.07;4.00;;;-0.60;99.90;;;;;;5054246;28;20197;-72
2024/01/08 04:58:50;;;;;;;7.75;3.47;;;-0.60;99.90;;;;;;5070448;28;20190;-72
2024/01/08 05:01:16;;;;;;;4.30;3.95;;;-0.60;99.90;;;;;;5054660;28;20175;-79
2024/01/08 05:03:43;;;;;;;7.23;3.87;;;-0.60;99.90;;;;;;5063788;28;20174;-72
2024/01/08 05:06:10;;;;;;;4.82;4.15;;;-0.60;99.90;;;;;;5093550;28;20451;-73
2024/01/08 05:08:36;;;;;;;5.47;4.03;;;-0.60;99.90;;;;;;5095019;28;20189;-78
2024/01/08 05:11:02;;;;;;;4.90;3.80;;;-0.60;99.90;;;;;;5094940;28;20249;-71
2024/01/08 05:13:27;;;;;;;3.47;3.27;;;-0.60;99.90;;;;;;5110718;28;20264;-77
2024/01/08 05:15:53;;;;;;;3.47;3.17;;;-0.60;99.90;;;;;;5093081;28;20176;-80
2024/01/08 05:18:19;;;;;;;3.47;2.77;;;-0.60;99.90;;;;;;5093806;28;20588;-73
2024/01/08 05:20:44;;;;;;;5.60;4.07;;;-0.60;99.90;;;;;;5093503;28;20189;-72
2024/01/08 05:23:10;;;;;;;3.63;3.33;;;-0.60;99.90;;;;;;5094314;28;20195;-72
2024/01/08 05:25:36;;;;;;;7.22;3.90;;;-0.60;99.90;;;;;;5093631;28;20157;-76
2024/01/08 05:28:02;;;;;;;4.03;3.63;;;-0.60;99.90;;;;;;5094548;28;20213;-81
2024/01/08 05:30:28;;;;;;;3.70;3.50;;;-0.60;99.90;;;;;;5077077;28;20179;-80
2024/01/08 05:32:54;;;;;;;3.60;3.30;;;-0.60;99.90;;;;;;5054388;28;20692;-74
2024/01/08 05:35:20;;;;;;;8.70;3.83;;;-0.60;99.90;;;;;;5089421;28;20533;-72
2024/01/08 05:37:45;;;;;;;4.40;4.03;;;-0.60;99.90;;;;;;5094521;28;20665;-76
2024/01/08 05:40:11;;;;;;;4.30;3.90;;;-0.60;99.90;;;;;;5094446;28;20650;-72
2024/01/08 05:42:38;;;;;;;5.30;3.72;;;-0.60;99.90;;;;;;5094026;28;20174;-72
2024/01/08 05:45:05;;;;;;;5.00;3.47;;;-0.60;99.90;;;;;;5093367;28;20176;-73
2024/01/08 05:47:31;;;;;;;5.22;4.22;;;-0.60;99.90;;;;;;5094117;28;20189;-72
2024/01/08 05:49:56;;;;;;;3.87;3.57;;;-0.50;99.90;;;;;;5093220;28;20188;-72
2024/01/08 05:52:22;;;;;;;4.90;3.50;;;-0.60;99.90;;;;;;5094354;28;20522;-78
2024/01/08 05:54:48;;;;;;;4.83;3.90;;;-0.50;99.90;;;;;;5093203;28;20888;-78
2024/01/08 05:57:14;;;;;;;5.75;3.60;;;-0.50;99.90;;;;;;5093995;28;20195;-80
2024/01/08 05:59:40;;;;;;;4.23;3.97;;;-0.60;99.90;;;;;;5075917;28;20618;-80
2024/01/08 06:02:05;;;;;;;4.13;3.83;;;-0.50;99.90;;;;;;5073548;28;20189;-80
2024/01/08 06:04:31;;;;;;;5.03;3.67;;;-0.50;99.90;;;;;;5083527;28;20174;-77
2024/01/08 06:06:57;;;;;;;7.33;4.63;;;-0.50;99.90;;;;;;5093809;28;20205;-72
2024/01/08 06:09:22;;;;;;;4.80;3.83;;;-0.50;99.90;;;;;;5092326;28;20215;-73
2024/01/08 06:11:48;;;;;;;5.97;4.00;;;-0.60;99.90;;;;;;5093243;28;20538;-78
2024/01/08 06:14:14;;;;;;;4.33;3.93;;;-0.60;99.90;;;;;;5093797;28;20162;-80
2024/01/08 06:16:39;;;;;;;4.47;3.70;;;-0.60;99.90;;;;;;5092926;28;20165;-72
2024/01/08 06:19:05;;;;;;;4.17;3.87;;;-0.60;99.90;;;;;;5091453;28;20190;-78
2024/01/08 06:21:31;;;;;;;5.40;4.00;;;-0.50;99.90;;;;;;5093051;28;20690;-80
2024/01/08 06:23:56;;;;;;;7.53;4.23;;;-0.60;99.90;;;;;;5093561;28;20166;-73
2024/01/08 06:26:22;;;;;;;4.00;3.70;;;-0.60;99.90;;;;;;5079285;28;20550;-72
2024/01/08 06:28:48;;;;;;;4.60;4.20;;;-0.60;99.90;;;;;;5053260;28;20640;-81
2024/01/08 06:31:13;;;;;;;7.77;4.10;;;-0.60;99.90;;;;;;5053320;28;20558;-77
2024/01/08 06:33:39;;;;;;;3.77;3.50;;;-0.60;99.90;;;;;;5061294;28;20247;-72
2024/01/08 06:36:05;;;;;;;4.10;3.83;;;-0.60;99.90;;;;;;5091304;28;20257;-79
2024/01/08 06:38:31;;;;;;;5.37;4.00;;;-0.60;99.90;;;;;;5091795;28;20231;-72
2024/01/08 06:40:56;;;;;;;6.37;3.27;;;-0.60;99.90;;;;;;5093420;28;20162;-71
2024/01/08 06:43:22;;;;;;;4.77;4.17;;;-0.60;99.90;;;;;;5093288;28;20245;-69
2024/01/08 06:45:49;;;;;;;4.73;4.33;;;-0.60;99.90;;;;;;5092437;28;20634;-80
2024/01/08 06:48:14;;;;;;;4.55;3.95;;;-0.60;99.90;;;;;;5090762;28;20213;-69
2024/01/08 06:50:40;;;;;;;4.70;4.30;;;-0.60;99.90;;;;;;5093165;28;20162;-77
2024/01/08 06:53:06;;;;;;;4.43;3.83;;;-0.70;99.90;;;;;;5093139;28;20683;-69
2024/01/08 06:55:32;;;;;;;9.13;4.93;;;-0.70;99.90;;;;;;5088478;28;20170;-77
2024/01/08 06:57:57;;;;;;;9.90;4.70;;;-0.60;99.90;;;;;;5071429;28;20202;-68
2024/01/08 07:00:26;;;;;;;3.93;3.63;;;-0.60;99.90;;;;;;5072588;28;20220;-68
2024/01/08 07:02:51;;;;;;;3.85;3.60;;;-0.60;99.90;;;;;;5072962;28;20159;-67
2024/01/08 07:05:18;;;;;;;4.37;3.97;;;-0.60;99.90;;;;;;5088964;28;20184;-69
2024/01/08 07:07:44;;;;;;;4.20;3.80;;;-0.60;99.90;;;;;;5091424;28;20547;-68
2024/01/08 07:10:10;;;;;;;3.72;3.42;;;-0.60;99.90;;;;;;5092934;28;20169;-74
2024/01/08 07:12:36;;;;;;;7.00;3.97;;;-0.60;99.90;;;;;;5091700;28;20166;-74
2024/01/08 07:15:04;;;;;;;4.30;3.90;;;-0.60;99.90;;;;;;5090947;28;20177;-68
2024/01/08 07:17:29;;;;;;;6.60;4.60;;;-0.70;99.90;;;;;;5090156;28;20194;-70
2024/01/08 07:19:55;;;;;;;9.83;4.57;;;-0.70;99.90;;;;;;5092873;28;20244;-73
2024/01/08 07:22:21;;;;;;;9.00;3.80;;;-0.70;99.90;;;;;;5093424;28;20169;-69
2024/01/08 07:24:46;;;;;;;3.57;3.30;;;-0.80;99.90;;;;;;5076831;28;20412;-75
2024/01/08 07:27:12;;;;;;;4.80;3.50;;;-0.90;99.90;;;;;;5056690;28;20194;-78
2024/01/08 07:29:38;;;;;;;4.63;4.27;;;-0.90;99.90;;;;;;5056709;28;20186;-77
2024/01/08 07:32:04;;;;;;;5.07;4.20;;;-0.80;99.90;;;;;;5056641;28;20405;-68
2024/01/08 07:34:30;;;;;;;4.90;4.40;;;-0.80;99.90;;;;;;5091166;28;20178;-72
2024/01/08 07:36:56;;;;;;;3.92;3.63;;;-0.70;99.90;;;;;;5096138;28;20465;-69
2024/01/08 07:39:22;;;;;;;4.63;3.37;;;-0.70;99.90;;;;;;5096798;28;20666;-71
2024/01/08 07:41:49;;;;;;;4.37;3.97;;;-0.60;99.90;;;;;;5096943;28;20169;-76
2024/01/08 07:44:15;;;;;;;4.38;4.05;;;-0.60;99.90;;;;;;5096540;28;20168;-75
2024/01/08 07:46:42;;;;;;;4.90;3.77;;;-0.60;99.90;;;;;;5094452;28;20201;-70
2024/01/08 07:49:09;;;;;;;5.07;4.20;;;-0.60;99.90;;;;;;5095724;28;20525;-77
2024/01/08 07:51:35;;;;;;;4.95;4.30;;;-0.60;99.90;;;;;;5096571;28;20165;-72
2024/01/08 07:54:00;;;;;;;4.57;4.17;;;-0.50;99.90;;;;;;5076701;28;20538;-77
2024/01/08 07:56:26;;;;;;;4.77;4.13;;;-0.50;99.90;;;;;;5073865;28;20313;-77
2024/01/08 07:58:53;;;;;;;6.30;4.43;;;-0.50;99.90;;;;;;5076111;28;20190;-77
2024/01/08 08:01:18;;;;;;;4.03;3.40;;;-0.40;99.90;;;;;;5076105;28;20404;-78
2024/01/08 08:03:44;;;;;;;7.40;4.10;;;-0.40;99.90;;;;;;5064633;28;20626;-70
2024/01/08 08:06:10;;;;;;;4.80;4.40;;;-0.40;99.90;;;;;;5054874;28;20186;-70
2024/01/08 08:08:36;;;;;;;4.57;4.18;;;-0.40;99.90;;;;;;5055822;28;20321;-78
2024/01/08 08:11:03;;;;;;;5.27;4.77;;;-0.40;99.90;;;;;;5064346;28;20201;-71
2024/01/08 08:13:30;;;;;;;6.75;4.20;;;-0.40;99.90;;;;;;5096196;28;20165;-73
2024/01/08 08:15:55;;;;;;;9.52;5.10;;;-0.40;99.90;;;;;;5094708;28;20219;-76
2024/01/08 08:18:21;;;;;;;5.83;4.63;;;-0.40;99.90;;;;;;5090179;28;20582;-77
2024/01/08 08:20:47;;;;;;;9.13;4.17;;;-0.40;99.90;;;;;;5075749;28;20173;-77
2024/01/08 08:23:12;;;;;;;4.70;4.17;;;-0.40;99.90;;;;;;5075902;28;20162;-69
2024/01/08 08:25:39;;;;;;;8.17;5.20;;;-0.40;99.90;;;;;;5087335;28;20227;-69
2024/01/08 08:28:05;;;;;;;8.15;4.53;;;-0.40;99.90;;;;;;5095740;28;20738;-78
2024/01/08 08:30:33;;;;;;;7.20;4.38;;;-0.40;99.90;;;;;;5094840;28;20189;-70
2024/01/08 08:32:58;;;;;;;8.43;4.68;;;-0.40;99.90;;;;;;5094751;28;20286;-68
2024/01/08 08:35:25;;;;;;;4.77;4.27;;;-0.40;99.90;;;;;;5073721;28;20186;-75
2024/01/08 08:37:51;;;;;;;4.60;4.05;;;-0.40;99.90;;;;;;5075146;28;20191;-70
2024/01/08 08:40:16;;;;;;;4.85;4.35;;;-0.40;99.90;;;;;;5075459;28;20658;-77
2024/01/08 08:42:43;;;;;;;7.80;4.60;;;-0.40;99.90;;;;;;5075349;28;20174;-78
2024/01/08 08:45:09;;;;;;;6.20;5.00;;;-0.40;99.90;;;;;;5074677;28;20173;-77
2024/01/08 08:47:35;;;;;;;5.40;4.90;;;-0.40;99.90;;;;;;5084387;28;20567;-78
2024/01/08 08:50:01;;;;;;;5.00;4.37;;;-0.40;99.90;;;;;;5076632;28;20476;-74
2024/01/08 08:52:26;;;;;;;11.73;5.23;;;-0.40;99.90;;;;;;5074367;28;20170;-68
2024/01/08 08:54:52;;;;;;;11.20;5.63;;;-0.40;99.90;;;;;;5073642;28;20698;-77
2024/01/08 08:57:18;;;;;;;9.50;5.23;;;-0.40;99.90;;;;;;5075112;28;20635;-77
2024/01/08 08:59:43;;;;;;;5.57;5.00;;;-0.40;99.90;;;;;;5075258;28;20158;-70
2024/01/08 09:02:09;;;;;;;5.80;4.60;;;-0.40;99.90;;;;;;5074698;28;20530;-69
2024/01/08 09:04:35;;;;;;;5.33;4.30;;;-0.40;99.90;;;;;;5072373;28;20596;-72
2024/01/08 09:07:00;;;;;;;11.30;5.90;;;-0.40;99.90;;;;;;5074831;28;20194;-69
2024/01/08 09:09:26;;;;;;;8.23;4.40;;;-0.40;99.90;;;;;;5074837;28;20184;-77
2024/01/08 09:11:52;;;;;;;16.90;5.37;;;-0.40;99.90;;;;;;5074759;28;20165;-76
2024/01/08 09:14:18;;;;;;;6.10;5.07;;;-0.40;99.90;;;;;;5074409;28;20171;-69
2024/01/08 09:16:44;;;;;;;9.27;5.40;;;-0.40;99.90;;;;;;5092273;28;20176;-72
2024/01/08 09:19:09;;;;;;;10.10;5.10;;;-0.50;99.90;;;;;;5090727;28;20199;-73
2024/01/08 09:21:35;;;;;;;7.20;4.63;;;-0.40;99.90;;;;;;5074746;28;20180;-69
2024/01/08 09:24:01;;;;;;;5.13;4.63;;;-0.40;99.90;;;;;;5074600;28;20665;-78
2024/01/08 09:26:26;;;;;;;6.57;5.00;;;-0.40;99.90;;;;;;5073803;28;20535;-77
2024/01/08 09:28:52;;;;;;;5.00;3.73;;;-0.30;99.90;;;;;;5074396;28;20225;-68
2024/01/08 09:31:18;;;;;;;4.43;4.13;;;-0.30;99.90;;;;;;5074025;28;20175;-78
2024/01/08 09:33:43;;;;;;;5.10;4.70;;;-0.30;99.90;;;;;;5072725;28;20172;-68
2024/01/08 09:36:09;;;;;;;5.40;4.30;;;-0.30;99.90;;;;;;5077084;28;20400;-69
2024/01/08 09:38:35;;;;;;;5.67;4.53;;;-0.30;99.90;;;;;;5061896;28;20235;-70
2024/01/08 09:41:01;;;;;;;4.20;3.90;;;-0.30;99.90;;;;;;5073923;28;20162;-70
2024/01/08 09:43:28;;;;;;;4.93;4.37;;;-0.30;99.90;;;;;;5074227;28;20173;-69
2024/01/08 09:46:05;;;;;;;4.78;4.38;;;-0.40;99.90;;;;;;5072364;28;20431;-73
2024/01/08 09:48:33;;;;;;;6.45;4.38;;;-0.30;99.90;;;;;;5074096;28;20596;-74
2024/01/08 09:51:00;;;;;;;5.28;4.60;;;-0.20;99.90;;;;;;5090470;28;20230;-69
2024/01/08 09:53:28;;;;;;;8.38;4.93;;;0.00;99.90;;;;;;5093670;28;20217;-78
2024/01/08 09:55:54;;;;;;;4.88;4.43;;;0.00;99.90;;;;;;5083400;28;20209;-78
2024/01/08 09:58:19;;;;;;;5.83;5.00;;;0.10;99.90;;;;;;5073081;28;20225;-75
2024/01/08 10:00:45;;;;;;;8.23;4.43;;;0.00;99.90;;;;;;5073902;28;20174;-77
2024/01/08 10:03:12;;;;;;;6.23;4.83;;;0.00;99.90;;;;;;5074048;28;20162;-71
2024/01/08 10:05:38;;;;;;;6.65;4.45;;;0.00;99.90;;;;;;5064915;28;20187;-77
2024/01/08 10:08:05;;;;;;;5.27;3.70;;;0.00;99.90;;;;;;5053973;28;20203;-70
2024/01/08 10:10:32;;;;;;;11.63;5.97;;;0.00;99.90;;;;;;5053929;28;20447;-69
2024/01/08 10:12:58;;;;;;;16.58;11.38;;;-0.10;99.90;;;;;;5053141;28;20167;-73
2024/01/08 10:15:24;;;;;;;8.55;5.20;;;-0.10;99.90;;;;;;5051730;28;20189;-78
2024/01/08 10:17:55;;;;;;;5.20;4.00;;;-0.20;99.90;;;;;;5053812;28;20663;-77
2024/01/08 10:20:20;;;;;;;5.05;4.65;;;-0.10;99.90;;;;;;5077261;28;20487;-77
2024/01/08 10:23:02;;;;;;;4.33;3.87;;;-0.10;99.90;;;;;;5094195;28;20797;-69
2024/01/08 10:25:28;;;;;;;9.68;4.85;;;-0.10;99.90;;;;;;5091714;28;20453;-69
2024/01/08 10:27:55;;;;;;;7.40;4.40;;;-0.10;99.90;;;;;;5071436;28;20199;-71
2024/01/08 10:30:21;;;;;;;5.18;4.78;;;-0.20;99.90;;;;;;5053263;28;20166;-77
2024/01/08 10:32:47;;;;;;;3.93;3.53;;;-0.20;99.90;;;;;;5052438;28;20178;-78
2024/01/08 10:35:13;;;;;;;5.05;4.65;;;-0.20;99.90;;;;;;5061145;28;20524;-72
2024/01/08 10:37:40;;;;;;;5.17;4.77;;;-0.10;99.90;;;;;;5073411;28;20201;-70
2024/01/08 10:40:09;;;;;;;5.28;4.75;;;-0.10;99.90;;;;;;5073502;28;20566;-76
2024/01/08 10:42:38;;;;;;;5.22;4.55;;;-0.10;99.90;;;;;;5073354;28;20166;-70
2024/01/08 10:45:04;;;;;;;8.23;4.88;;;-0.10;99.90;;;;;;5072603;28;20231;-78
2024/01/08 10:47:34;;;;;;;7.18;4.65;;;-0.20;99.90;;;;;;5072086;28;20263;-72
2024/01/08 10:50:05;;;;;;;5.75;4.45;;;-0.10;99.90;;;;;;5068252;28;20162;-78
2024/01/08 10:52:35;;;;;;;5.50;4.70;;;-0.10;99.90;;;;;;5053255;28;20240;-76
2024/01/08 10:55:02;;;;;;;8.57;4.07;;;-0.10;99.90;;;;;;5067893;28;20760;-72
2024/01/08 10:57:36;;;;;;;6.95;3.97;;;-0.10;99.90;;;;;;5052862;28;20294;-71
2024/01/08 11:00:06;;;;;;;6.40;5.30;;;-0.20;99.90;;;;;;5053223;28;20167;-67
2024/01/08 11:02:37;;;;;;;6.63;4.53;;;-0.30;99.90;;;;;;5075009;28;20177;-69
2024/01/08 11:05:05;;;;;;;4.30;3.90;;;-0.30;99.90;;;;;;5085588;28;20163;-67
2024/01/08 11:07:35;;;;;;;8.90;3.63;;;-0.30;99.90;;;;;;5052172;28;20237;-76
2024/01/08 11:10:06;;;;;;;7.70;4.22;;;-0.40;99.90;;;;;;5053056;28;20651;-78
2024/01/08 11:12:36;;;;;;;3.40;3.05;;;-0.30;99.90;;;;;;5053168;28;20167;-77
2024/01/08 11:15:03;;;;;;;3.60;3.40;;;-0.30;99.90;;;;;;5060397;28;20169;-77
2024/01/08 11:17:29;;;;;;;4.32;3.40;;;-0.20;99.90;;;;;;5093238;28;20188;-76
2024/01/08 11:19:57;;;;;;;8.73;4.28;;;-0.10;99.90;;;;;;5092476;28;20166;-69
2024/01/08 11:22:23;;;;;;;5.75;4.43;;;0.10;99.90;;;;;;5072207;28;20696;-78
2024/01/08 11:24:49;;;;;;;4.23;3.93;;;0.10;99.90;;;;;;5078120;28;20193;-76
2024/01/08 11:27:21;;;;;;;7.57;4.10;;;0.10;99.90;;;;;;5091641;28;20511;-68
2024/01/08 11:29:57;;;;;;;5.05;4.60;;;0.00;99.90;;;;;;5091773;28;20411;-73
2024/01/08 11:32:41;;;;;;;5.28;4.43;;;-0.10;99.90;;;;;;5093031;28;20170;-67
2024/01/08 11:35:10;;;;;;;3.80;3.50;;;0.10;99.90;;;;;;5090151;28;20190;-68
2024/01/08 11:37:37;;;;;;;4.55;4.18;;;0.10;99.90;;;;;;5092953;28;20189;-69
2024/01/08 11:40:17;;;;;;;8.98;4.10;;;0.20;99.90;;;;;;5093072;28;20252;-76
2024/01/08 11:42:47;;;;;;;4.03;3.40;;;0.20;99.90;;;;;;5093029;28;20642;-76
2024/01/08 11:45:14;;;;;;;8.13;4.88;;;0.20;99.90;;;;;;5091419;28;20248;-68
2024/01/08 11:47:40;;;;;;;10.20;4.50;;;0.20;99.90;;;;;;5092825;28;20193;-68
2024/01/08 11:50:07;;;;;;;3.88;3.58;;;0.20;99.90;;;;;;5074611;28;20174;-78
2024/01/08 11:52:35;;;;;;;5.78;4.10;;;0.30;99.90;;;;;;5052669;28;20246;-77
2024/01/08 11:55:01;;;;;;;4.13;3.35;;;0.30;99.90;;;;;;5051817;28;20173;-69
2024/01/08 11:57:27;;;;;;;5.20;3.70;;;0.30;99.90;;;;;;5052597;28;20265;-75
2024/01/08 11:59:53;;;;;;;4.13;3.27;;;0.30;99.90;;;;;;5052643;28;20401;-78
2024/01/08 12:02:27;;;;;;;6.73;4.00;;;0.30;99.90;;;;;;5052565;28;20723;-72
2024/01/08 12:04:59;;;;;;;6.78;4.80;;;0.30;99.90;;;;;;5083641;28;20181;-68
2024/01/08 12:07:29;;;;;;;7.97;5.05;;;0.30;99.90;;;;;;5054365;28;20203;-79
2024/01/08 12:09:57;;;;;;;7.43;4.82;;;0.30;99.90;;;;;;5053728;28;20179;-77
2024/01/08 12:12:24;;;;;;;3.90;3.67;;;0.30;99.90;;;;;;5056201;28;20163;-77
2024/01/08 12:14:51;;;;;;;6.05;4.22;;;0.10;99.90;;;;;;5070751;28;20264;-68
2024/01/08 12:17:20;;;;;;;5.05;4.65;;;0.20;99.90;;;;;;5080417;28;20516;-68
2024/01/08 12:19:53;;;;;;;7.05;4.50;;;0.20;99.90;;;;;;5076103;28;20212;-68
2024/01/08 12:22:20;;;;;;;6.45;4.20;;;0.20;99.90;;;;;;5090431;28;20181;-73
2024/01/08 12:24:48;;;;;;;6.80;4.60;;;0.20;99.90;;;;;;5095467;28;20169;-76
2024/01/08 12:27:16;;;;;;;4.70;4.15;;;0.20;99.90;;;;;;5096212;28;20689;-77
2024/01/08 12:29:43;;;;;;;5.18;4.55;;;0.20;99.90;;;;;;5096291;28;20521;-74
2024/01/08 12:32:12;;;;;;;4.40;4.10;;;0.20;99.90;;;;;;5095100;28;20191;-67
2024/01/08 12:34:39;;;;;;;4.70;4.20;;;0.20;99.90;;;;;;5095068;28;20316;-68
2024/01/08 12:37:06;;;;;;;9.88;3.85;;;0.30;99.90;;;;;;5070486;28;20707;-67
2024/01/08 12:39:35;;;;;;;4.28;3.80;;;0.30;99.90;;;;;;5054992;28;20191;-69
2024/01/08 12:42:04;;;;;;;6.13;4.43;;;0.30;99.90;;;;;;5055772;28;20644;-79
2024/01/08 12:44:31;;;;;;;5.65;4.30;;;0.40;99.90;;;;;;5055122;28;20167;-75